sensor_id;sensor_type;location;lat;lon;timestamp;P1;durP1;ratioP1;P2;durP2;ratioP2
15082;SDS011;7640;53.116;6.878;2022-07-09T00:00:05;14.67;;;7.90;;
15082;SDS011;7640;53.116;6.878;2022-07-09T00:02:35;13.70;;;7.90;;
15082;SDS011;7640;53.116;6.878;2022-07-09T00:05:04;13.13;;;8.33;;
15082;SDS011;7640;53.116;6.878;2022-07-09T00:07:38;13.10;;;8.20;;
15082;SDS011;7640;53.116;6.878;2022-07-09T00:10:08;14.57;;;8.20;;
15082;SDS011;7640;53.116;6.878;2022-07-09T00:12:37;14.07;;;8.73;;
15082;SDS011;7640;53.116;6.878;2022-07-09T00:15:06;13.53;;;8.20;;
15082;SDS011;7640;53.116;6.878;2022-07-09T00:17:35;15.00;;;8.93;;
15082;SDS011;7640;53.116;6.878;2022-07-09T00:20:04;12.97;;;8.40;;
15082;SDS011;7640;53.116;6.878;2022-07-09T00:22:33;14.97;;;8.50;;
15082;SDS011;7640;53.116;6.878;2022-07-09T00:25:02;12.10;;;9.10;;
15082;SDS011;7640;53.116;6.878;2022-07-09T00:27:32;15.50;;;9.10;;
15082;SDS011;7640;53.116;6.878;2022-07-09T00:30:00;16.10;;;9.67;;
15082;SDS011;7640;53.116;6.878;2022-07-09T00:32:29;13.93;;;9.30;;
15082;SDS011;7640;53.116;6.878;2022-07-09T00:34:57;13.37;;;8.67;;
15082;SDS011;7640;53.116;6.878;2022-07-09T00:37:25;13.20;;;9.30;;
15082;SDS011;7640;53.116;6.878;2022-07-09T00:39:53;14.30;;;10.73;;
15082;SDS011;7640;53.116;6.878;2022-07-09T00:42:21;14.03;;;9.53;;
15082;SDS011;7640;53.116;6.878;2022-07-09T00:44:52;14.70;;;9.87;;
15082;SDS011;7640;53.116;6.878;2022-07-09T00:47:20;15.13;;;10.03;;
15082;SDS011;7640;53.116;6.878;2022-07-09T00:49:49;14.50;;;10.13;;
15082;SDS011;7640;53.116;6.878;2022-07-09T00:52:17;17.17;;;10.67;;
15082;SDS011;7640;53.116;6.878;2022-07-09T00:54:46;15.30;;;10.30;;
15082;SDS011;7640;53.116;6.878;2022-07-09T00:57:14;18.57;;;10.57;;
15082;SDS011;7640;53.116;6.878;2022-07-09T00:59:45;15.13;;;10.20;;
15082;SDS011;7640;53.116;6.878;2022-07-09T01:02:15;16.73;;;9.93;;
15082;SDS011;7640;53.116;6.878;2022-07-09T01:04:46;16.43;;;11.30;;
15082;SDS011;7640;53.116;6.878;2022-07-09T01:07:14;17.00;;;11.20;;
15082;SDS011;7640;53.116;6.878;2022-07-09T01:09:43;16.60;;;11.00;;
15082;SDS011;7640;53.116;6.878;2022-07-09T01:12:12;17.60;;;11.70;;
15082;SDS011;7640;53.116;6.878;2022-07-09T01:14:41;17.70;;;11.47;;
15082;SDS011;7640;53.116;6.878;2022-07-09T01:17:09;17.00;;;12.50;;
15082;SDS011;7640;53.116;6.878;2022-07-09T01:19:39;15.73;;;12.30;;
15082;SDS011;7640;53.116;6.878;2022-07-09T01:22:08;17.53;;;13.13;;
15082;SDS011;7640;53.116;6.878;2022-07-09T01:24:36;18.60;;;13.63;;
15082;SDS011;7640;53.116;6.878;2022-07-09T01:27:05;16.57;;;12.23;;
15082;SDS011;7640;53.116;6.878;2022-07-09T01:29:34;19.07;;;13.40;;
15082;SDS011;7640;53.116;6.878;2022-07-09T01:32:02;19.10;;;13.20;;
15082;SDS011;7640;53.116;6.878;2022-07-09T01:34:32;16.33;;;12.63;;
15082;SDS011;7640;53.116;6.878;2022-07-09T01:37:00;19.27;;;13.17;;
15082;SDS011;7640;53.116;6.878;2022-07-09T01:39:29;18.47;;;12.27;;
15082;SDS011;7640;53.116;6.878;2022-07-09T01:41:57;18.50;;;12.73;;
15082;SDS011;7640;53.116;6.878;2022-07-09T01:44:25;20.07;;;13.43;;
15082;SDS011;7640;53.116;6.878;2022-07-09T01:46:54;21.00;;;12.70;;
15082;SDS011;7640;53.116;6.878;2022-07-09T01:49:22;18.93;;;12.70;;
15082;SDS011;7640;53.116;6.878;2022-07-09T01:51:50;17.20;;;12.77;;
15082;SDS011;7640;53.116;6.878;2022-07-09T01:54:18;18.30;;;12.27;;
15082;SDS011;7640;53.116;6.878;2022-07-09T01:56:48;19.40;;;12.33;;
15082;SDS011;7640;53.116;6.878;2022-07-09T01:59:16;18.33;;;12.10;;
15082;SDS011;7640;53.116;6.878;2022-07-09T02:01:44;15.43;;;10.80;;
15082;SDS011;7640;53.116;6.878;2022-07-09T02:04:12;19.47;;;11.97;;
15082;SDS011;7640;53.116;6.878;2022-07-09T02:06:40;18.07;;;11.70;;
15082;SDS011;7640;53.116;6.878;2022-07-09T02:09:09;19.23;;;12.20;;
15082;SDS011;7640;53.116;6.878;2022-07-09T02:11:37;16.87;;;11.50;;
15082;SDS011;7640;53.116;6.878;2022-07-09T02:14:06;20.30;;;11.90;;
15082;SDS011;7640;53.116;6.878;2022-07-09T02:16:34;16.80;;;11.13;;
15082;SDS011;7640;53.116;6.878;2022-07-09T02:19:03;18.23;;;11.80;;
15082;SDS011;7640;53.116;6.878;2022-07-09T02:21:32;18.37;;;12.07;;
15082;SDS011;7640;53.116;6.878;2022-07-09T02:24:00;19.63;;;11.30;;
15082;SDS011;7640;53.116;6.878;2022-07-09T02:26:29;17.60;;;10.60;;
15082;SDS011;7640;53.116;6.878;2022-07-09T02:28:57;17.47;;;11.00;;
15082;SDS011;7640;53.116;6.878;2022-07-09T02:31:27;18.10;;;11.27;;
15082;SDS011;7640;53.116;6.878;2022-07-09T02:33:55;20.13;;;11.97;;
15082;SDS011;7640;53.116;6.878;2022-07-09T02:36:24;20.43;;;12.63;;
15082;SDS011;7640;53.116;6.878;2022-07-09T02:38:52;19.30;;;11.83;;
15082;SDS011;7640;53.116;6.878;2022-07-09T02:41:20;23.10;;;12.57;;
15082;SDS011;7640;53.116;6.878;2022-07-09T02:43:48;18.80;;;12.63;;
15082;SDS011;7640;53.116;6.878;2022-07-09T02:46:17;18.43;;;11.80;;
15082;SDS011;7640;53.116;6.878;2022-07-09T02:48:46;18.13;;;11.93;;
15082;SDS011;7640;53.116;6.878;2022-07-09T02:51:14;18.10;;;11.40;;
15082;SDS011;7640;53.116;6.878;2022-07-09T02:53:42;20.20;;;11.27;;
15082;SDS011;7640;53.116;6.878;2022-07-09T02:56:11;17.40;;;11.73;;
15082;SDS011;7640;53.116;6.878;2022-07-09T02:58:39;20.77;;;12.27;;
15082;SDS011;7640;53.116;6.878;2022-07-09T03:01:07;16.73;;;11.87;;
15082;SDS011;7640;53.116;6.878;2022-07-09T03:03:35;18.03;;;11.20;;
15082;SDS011;7640;53.116;6.878;2022-07-09T03:06:05;20.00;;;11.93;;
15082;SDS011;7640;53.116;6.878;2022-07-09T03:08:34;18.43;;;11.67;;
15082;SDS011;7640;53.116;6.878;2022-07-09T03:11:03;20.27;;;11.43;;
15082;SDS011;7640;53.116;6.878;2022-07-09T03:13:33;19.30;;;11.80;;
15082;SDS011;7640;53.116;6.878;2022-07-09T03:16:01;18.00;;;10.90;;
15082;SDS011;7640;53.116;6.878;2022-07-09T03:18:30;24.07;;;12.13;;
15082;SDS011;7640;53.116;6.878;2022-07-09T03:20:59;17.33;;;11.53;;
15082;SDS011;7640;53.116;6.878;2022-07-09T03:23:28;20.73;;;11.33;;
15082;SDS011;7640;53.116;6.878;2022-07-09T03:25:56;19.77;;;11.90;;
15082;SDS011;7640;53.116;6.878;2022-07-09T03:28:25;17.80;;;10.97;;
15082;SDS011;7640;53.116;6.878;2022-07-09T03:30:54;20.77;;;12.00;;
15082;SDS011;7640;53.116;6.878;2022-07-09T03:33:22;20.30;;;11.73;;
15082;SDS011;7640;53.116;6.878;2022-07-09T03:35:50;16.37;;;10.70;;
15082;SDS011;7640;53.116;6.878;2022-07-09T03:38:20;16.40;;;11.87;;
15082;SDS011;7640;53.116;6.878;2022-07-09T03:40:50;17.47;;;11.30;;
15082;SDS011;7640;53.116;6.878;2022-07-09T03:43:19;16.00;;;11.40;;
15082;SDS011;7640;53.116;6.878;2022-07-09T03:45:47;16.83;;;10.67;;
15082;SDS011;7640;53.116;6.878;2022-07-09T03:48:15;19.77;;;10.87;;
15082;SDS011;7640;53.116;6.878;2022-07-09T03:50:44;19.17;;;10.40;;
15082;SDS011;7640;53.116;6.878;2022-07-09T03:53:12;14.70;;;10.80;;
15082;SDS011;7640;53.116;6.878;2022-07-09T03:55:40;17.00;;;10.07;;
15082;SDS011;7640;53.116;6.878;2022-07-09T03:58:10;17.13;;;10.63;;
15082;SDS011;7640;53.116;6.878;2022-07-09T04:00:38;23.70;;;11.20;;
15082;SDS011;7640;53.116;6.878;2022-07-09T04:03:06;17.23;;;11.30;;
15082;SDS011;7640;53.116;6.878;2022-07-09T04:05:34;17.57;;;10.80;;
15082;SDS011;7640;53.116;6.878;2022-07-09T04:08:03;20.17;;;11.00;;
15082;SDS011;7640;53.116;6.878;2022-07-09T04:10:32;18.13;;;11.07;;
15082;SDS011;7640;53.116;6.878;2022-07-09T04:13:00;17.33;;;10.83;;
15082;SDS011;7640;53.116;6.878;2022-07-09T04:15:30;17.03;;;10.03;;
15082;SDS011;7640;53.116;6.878;2022-07-09T04:17:59;17.93;;;9.70;;
15082;SDS011;7640;53.116;6.878;2022-07-09T04:20:27;18.33;;;10.70;;
15082;SDS011;7640;53.116;6.878;2022-07-09T04:22:56;15.47;;;9.67;;
15082;SDS011;7640;53.116;6.878;2022-07-09T04:25:24;18.77;;;10.17;;
15082;SDS011;7640;53.116;6.878;2022-07-09T04:27:52;15.23;;;9.00;;
15082;SDS011;7640;53.116;6.878;2022-07-09T04:30:20;17.60;;;9.47;;
15082;SDS011;7640;53.116;6.878;2022-07-09T04:32:50;19.73;;;10.03;;
15082;SDS011;7640;53.116;6.878;2022-07-09T04:35:18;19.13;;;10.13;;
15082;SDS011;7640;53.116;6.878;2022-07-09T04:37:46;20.00;;;10.00;;
15082;SDS011;7640;53.116;6.878;2022-07-09T04:40:14;13.87;;;9.10;;
15082;SDS011;7640;53.116;6.878;2022-07-09T04:42:42;14.47;;;10.03;;
15082;SDS011;7640;53.116;6.878;2022-07-09T04:45:11;16.70;;;9.63;;
15082;SDS011;7640;53.116;6.878;2022-07-09T04:47:39;19.50;;;10.03;;
15082;SDS011;7640;53.116;6.878;2022-07-09T04:50:09;14.63;;;8.80;;
15082;SDS011;7640;53.116;6.878;2022-07-09T04:52:38;13.03;;;9.03;;
15082;SDS011;7640;53.116;6.878;2022-07-09T04:55:06;17.30;;;9.63;;
15082;SDS011;7640;53.116;6.878;2022-07-09T04:57:36;12.33;;;8.93;;
15082;SDS011;7640;53.116;6.878;2022-07-09T05:00:05;17.53;;;9.20;;
15082;SDS011;7640;53.116;6.878;2022-07-09T05:02:35;17.97;;;9.20;;
15082;SDS011;7640;53.116;6.878;2022-07-09T05:05:03;15.80;;;8.80;;
15082;SDS011;7640;53.116;6.878;2022-07-09T05:07:34;12.67;;;8.13;;
15082;SDS011;7640;53.116;6.878;2022-07-09T05:10:03;15.03;;;8.87;;
15082;SDS011;7640;53.116;6.878;2022-07-09T05:12:32;13.20;;;8.83;;
15082;SDS011;7640;53.116;6.878;2022-07-09T05:15:00;14.50;;;7.87;;
15082;SDS011;7640;53.116;6.878;2022-07-09T05:17:32;12.13;;;8.13;;
15082;SDS011;7640;53.116;6.878;2022-07-09T05:20:01;13.33;;;8.33;;
15082;SDS011;7640;53.116;6.878;2022-07-09T05:22:31;12.03;;;7.77;;
15082;SDS011;7640;53.116;6.878;2022-07-09T05:25:01;13.60;;;7.87;;
15082;SDS011;7640;53.116;6.878;2022-07-09T05:27:31;12.37;;;7.63;;
15082;SDS011;7640;53.116;6.878;2022-07-09T05:29:59;14.87;;;7.47;;
15082;SDS011;7640;53.116;6.878;2022-07-09T05:32:27;10.50;;;7.03;;
15082;SDS011;7640;53.116;6.878;2022-07-09T05:34:55;15.13;;;7.80;;
15082;SDS011;7640;53.116;6.878;2022-07-09T05:37:24;14.00;;;7.30;;
15082;SDS011;7640;53.116;6.878;2022-07-09T05:39:52;11.87;;;7.50;;
15082;SDS011;7640;53.116;6.878;2022-07-09T05:42:25;11.53;;;7.43;;
15082;SDS011;7640;53.116;6.878;2022-07-09T05:44:53;9.73;;;6.23;;
15082;SDS011;7640;53.116;6.878;2022-07-09T05:47:22;13.37;;;7.60;;
15082;SDS011;7640;53.116;6.878;2022-07-09T05:49:51;12.27;;;6.73;;
15082;SDS011;7640;53.116;6.878;2022-07-09T05:52:19;11.83;;;7.13;;
15082;SDS011;7640;53.116;6.878;2022-07-09T05:54:47;12.07;;;6.80;;
15082;SDS011;7640;53.116;6.878;2022-07-09T05:57:15;12.97;;;6.53;;
15082;SDS011;7640;53.116;6.878;2022-07-09T05:59:45;10.03;;;6.50;;
15082;SDS011;7640;53.116;6.878;2022-07-09T06:02:13;10.27;;;6.37;;
15082;SDS011;7640;53.116;6.878;2022-07-09T06:04:41;15.53;;;7.07;;
15082;SDS011;7640;53.116;6.878;2022-07-09T06:07:09;10.37;;;6.77;;
15082;SDS011;7640;53.116;6.878;2022-07-09T06:09:38;10.43;;;6.67;;
15082;SDS011;7640;53.116;6.878;2022-07-09T06:12:06;13.03;;;6.57;;
15082;SDS011;7640;53.116;6.878;2022-07-09T06:14:35;9.47;;;6.20;;
15082;SDS011;7640;53.116;6.878;2022-07-09T06:17:05;9.37;;;6.40;;
15082;SDS011;7640;53.116;6.878;2022-07-09T06:19:33;10.53;;;7.10;;
15082;SDS011;7640;53.116;6.878;2022-07-09T06:22:02;9.33;;;6.13;;
15082;SDS011;7640;53.116;6.878;2022-07-09T06:24:31;10.23;;;6.20;;
15082;SDS011;7640;53.116;6.878;2022-07-09T06:27:00;9.47;;;6.07;;
15082;SDS011;7640;53.116;6.878;2022-07-09T06:29:28;11.53;;;5.53;;
15082;SDS011;7640;53.116;6.878;2022-07-09T06:31:56;10.40;;;5.60;;
15082;SDS011;7640;53.116;6.878;2022-07-09T06:34:28;9.70;;;5.80;;
15082;SDS011;7640;53.116;6.878;2022-07-09T06:36:56;11.60;;;5.90;;
15082;SDS011;7640;53.116;6.878;2022-07-09T06:39:25;11.20;;;5.70;;
15082;SDS011;7640;53.116;6.878;2022-07-09T06:42:12;9.50;;;5.63;;
15082;SDS011;7640;53.116;6.878;2022-07-09T06:44:44;8.57;;;4.70;;
15082;SDS011;7640;53.116;6.878;2022-07-09T06:47:14;12.27;;;5.60;;
15082;SDS011;7640;53.116;6.878;2022-07-09T06:49:43;10.57;;;5.10;;
15082;SDS011;7640;53.116;6.878;2022-07-09T06:52:12;9.70;;;5.20;;
15082;SDS011;7640;53.116;6.878;2022-07-09T06:54:40;7.80;;;4.60;;
15082;SDS011;7640;53.116;6.878;2022-07-09T06:57:09;9.30;;;5.10;;
15082;SDS011;7640;53.116;6.878;2022-07-09T06:59:37;8.97;;;4.30;;
15082;SDS011;7640;53.116;6.878;2022-07-09T07:02:06;6.90;;;4.17;;
15082;SDS011;7640;53.116;6.878;2022-07-09T07:04:34;7.07;;;4.13;;
15082;SDS011;7640;53.116;6.878;2022-07-09T07:07:04;11.33;;;5.30;;
15082;SDS011;7640;53.116;6.878;2022-07-09T07:09:32;10.00;;;4.70;;
15082;SDS011;7640;53.116;6.878;2022-07-09T07:12:01;7.43;;;4.07;;
15082;SDS011;7640;53.116;6.878;2022-07-09T07:14:30;7.77;;;4.67;;
15082;SDS011;7640;53.116;6.878;2022-07-09T07:16:58;5.33;;;3.80;;
15082;SDS011;7640;53.116;6.878;2022-07-09T07:19:26;7.10;;;3.77;;
15082;SDS011;7640;53.116;6.878;2022-07-09T07:21:55;7.43;;;3.90;;
15082;SDS011;7640;53.116;6.878;2022-07-09T07:24:24;7.10;;;3.57;;
15082;SDS011;7640;53.116;6.878;2022-07-09T07:26:53;6.73;;;3.63;;
15082;SDS011;7640;53.116;6.878;2022-07-09T07:29:22;5.40;;;3.73;;
15082;SDS011;7640;53.116;6.878;2022-07-09T07:31:51;6.60;;;3.77;;
15082;SDS011;7640;53.116;6.878;2022-07-09T07:34:19;6.40;;;3.50;;
15082;SDS011;7640;53.116;6.878;2022-07-09T07:36:49;5.23;;;3.63;;
15082;SDS011;7640;53.116;6.878;2022-07-09T07:39:18;5.77;;;3.50;;
15082;SDS011;7640;53.116;6.878;2022-07-09T07:41:49;5.17;;;3.30;;
15082;SDS011;7640;53.116;6.878;2022-07-09T07:44:18;7.37;;;3.43;;
15082;SDS011;7640;53.116;6.878;2022-07-09T07:46:47;4.80;;;3.00;;
15082;SDS011;7640;53.116;6.878;2022-07-09T07:49:15;6.43;;;2.73;;
15082;SDS011;7640;53.116;6.878;2022-07-09T07:51:44;4.10;;;2.60;;
15082;SDS011;7640;53.116;6.878;2022-07-09T07:54:12;5.57;;;3.10;;
15082;SDS011;7640;53.116;6.878;2022-07-09T07:56:40;4.17;;;3.00;;
15082;SDS011;7640;53.116;6.878;2022-07-09T07:59:10;4.83;;;3.03;;
15082;SDS011;7640;53.116;6.878;2022-07-09T08:01:38;4.37;;;2.80;;
15082;SDS011;7640;53.116;6.878;2022-07-09T08:04:06;6.63;;;3.10;;
15082;SDS011;7640;53.116;6.878;2022-07-09T08:06:35;6.40;;;3.10;;
15082;SDS011;7640;53.116;6.878;2022-07-09T08:09:03;5.47;;;3.10;;
15082;SDS011;7640;53.116;6.878;2022-07-09T08:11:31;4.73;;;2.93;;
15082;SDS011;7640;53.116;6.878;2022-07-09T08:14:00;8.50;;;3.57;;
15082;SDS011;7640;53.116;6.878;2022-07-09T08:16:29;3.93;;;2.47;;
15082;SDS011;7640;53.116;6.878;2022-07-09T08:18:58;4.30;;;2.13;;
15082;SDS011;7640;53.116;6.878;2022-07-09T08:21:26;5.47;;;2.43;;
15082;SDS011;7640;53.116;6.878;2022-07-09T08:23:54;5.07;;;2.50;;
15082;SDS011;7640;53.116;6.878;2022-07-09T08:26:23;5.73;;;2.10;;
15082;SDS011;7640;53.116;6.878;2022-07-09T08:28:52;3.37;;;2.17;;
15082;SDS011;7640;53.116;6.878;2022-07-09T08:31:21;5.10;;;1.90;;
15082;SDS011;7640;53.116;6.878;2022-07-09T08:33:51;3.30;;;1.90;;
15082;SDS011;7640;53.116;6.878;2022-07-09T08:36:21;3.30;;;1.73;;
15082;SDS011;7640;53.116;6.878;2022-07-09T08:38:49;4.63;;;2.00;;
15082;SDS011;7640;53.116;6.878;2022-07-09T08:41:18;2.47;;;1.77;;
15082;SDS011;7640;53.116;6.878;2022-07-09T08:43:52;5.03;;;1.80;;
15082;SDS011;7640;53.116;6.878;2022-07-09T08:46:22;5.67;;;1.90;;
15082;SDS011;7640;53.116;6.878;2022-07-09T08:48:52;5.63;;;2.20;;
15082;SDS011;7640;53.116;6.878;2022-07-09T08:51:22;7.07;;;2.20;;
15082;SDS011;7640;53.116;6.878;2022-07-09T08:53:50;5.33;;;1.93;;
15082;SDS011;7640;53.116;6.878;2022-07-09T08:56:22;5.17;;;2.17;;
15082;SDS011;7640;53.116;6.878;2022-07-09T08:58:50;4.00;;;2.10;;
15082;SDS011;7640;53.116;6.878;2022-07-09T09:01:19;4.10;;;1.63;;
15082;SDS011;7640;53.116;6.878;2022-07-09T09:03:47;4.33;;;2.13;;
15082;SDS011;7640;53.116;6.878;2022-07-09T09:06:20;4.33;;;1.83;;
15082;SDS011;7640;53.116;6.878;2022-07-09T09:08:52;5.00;;;1.95;;
15082;SDS011;7640;53.116;6.878;2022-07-09T09:11:23;4.37;;;2.10;;
15082;SDS011;7640;53.116;6.878;2022-07-09T09:13:53;4.78;;;2.10;;
15082;SDS011;7640;53.116;6.878;2022-07-09T09:16:21;4.83;;;2.10;;
15082;SDS011;7640;53.116;6.878;2022-07-09T09:18:50;5.73;;;2.73;;
15082;SDS011;7640;53.116;6.878;2022-07-09T09:21:22;6.23;;;2.50;;
15082;SDS011;7640;53.116;6.878;2022-07-09T09:23:52;5.47;;;2.60;;
15082;SDS011;7640;53.116;6.878;2022-07-09T09:26:22;7.03;;;2.67;;
15082;SDS011;7640;53.116;6.878;2022-07-09T09:28:52;6.40;;;2.90;;
15082;SDS011;7640;53.116;6.878;2022-07-09T09:31:22;7.73;;;3.20;;
15082;SDS011;7640;53.116;6.878;2022-07-09T09:33:53;6.87;;;3.13;;
15082;SDS011;7640;53.116;6.878;2022-07-09T09:36:28;11.23;;;3.07;;
15082;SDS011;7640;53.116;6.878;2022-07-09T09:39:07;5.60;;;3.20;;
15082;SDS011;7640;53.116;6.878;2022-07-09T09:41:44;5.37;;;2.50;;
15082;SDS011;7640;53.116;6.878;2022-07-09T09:44:14;6.77;;;2.90;;
15082;SDS011;7640;53.116;6.878;2022-07-09T09:46:45;6.17;;;3.07;;
15082;SDS011;7640;53.116;6.878;2022-07-09T09:49:14;5.47;;;2.40;;
15082;SDS011;7640;53.116;6.878;2022-07-09T09:51:49;7.87;;;2.87;;
15082;SDS011;7640;53.116;6.878;2022-07-09T09:54:23;4.13;;;2.10;;
15082;SDS011;7640;53.116;6.878;2022-07-09T09:56:51;6.33;;;2.40;;
15082;SDS011;7640;53.116;6.878;2022-07-09T09:59:21;5.00;;;2.47;;
15082;SDS011;7640;53.116;6.878;2022-07-09T10:01:50;5.10;;;2.87;;
15082;SDS011;7640;53.116;6.878;2022-07-09T10:04:18;5.00;;;2.43;;
15082;SDS011;7640;53.116;6.878;2022-07-09T10:06:49;7.43;;;2.60;;
15082;SDS011;7640;53.116;6.878;2022-07-09T10:09:17;3.77;;;2.20;;
15082;SDS011;7640;53.116;6.878;2022-07-09T10:11:47;6.20;;;2.50;;
15082;SDS011;7640;53.116;6.878;2022-07-09T10:14:16;3.63;;;2.13;;
15082;SDS011;7640;53.116;6.878;2022-07-09T10:17:08;6.53;;;2.20;;
15082;SDS011;7640;53.116;6.878;2022-07-09T10:19:39;6.43;;;2.47;;
15082;SDS011;7640;53.116;6.878;2022-07-09T10:22:21;5.93;;;2.00;;
15082;SDS011;7640;53.116;6.878;2022-07-09T10:24:50;6.03;;;2.43;;
15082;SDS011;7640;53.116;6.878;2022-07-09T10:27:21;5.50;;;2.10;;
15082;SDS011;7640;53.116;6.878;2022-07-09T10:29:53;2.87;;;1.90;;
15082;SDS011;7640;53.116;6.878;2022-07-09T10:32:27;4.43;;;2.10;;
15082;SDS011;7640;53.116;6.878;2022-07-09T10:34:57;5.15;;;1.90;;
15082;SDS011;7640;53.116;6.878;2022-07-09T10:37:33;4.67;;;2.07;;
15082;SDS011;7640;53.116;6.878;2022-07-09T10:40:10;3.13;;;1.80;;
15082;SDS011;7640;53.116;6.878;2022-07-09T10:42:40;5.30;;;2.35;;
15082;SDS011;7640;53.116;6.878;2022-07-09T10:45:20;3.65;;;1.98;;
15082;SDS011;7640;53.116;6.878;2022-07-09T10:47:50;2.78;;;2.00;;
15082;SDS011;7640;53.116;6.878;2022-07-09T10:50:21;6.07;;;2.00;;
15082;SDS011;7640;53.116;6.878;2022-07-09T10:52:51;3.10;;;2.10;;
15082;SDS011;7640;53.116;6.878;2022-07-09T10:55:20;6.32;;;2.35;;
15082;SDS011;7640;53.116;6.878;2022-07-09T10:57:51;4.95;;;2.10;;
15082;SDS011;7640;53.116;6.878;2022-07-09T11:00:21;4.75;;;2.20;;
15082;SDS011;7640;53.116;6.878;2022-07-09T11:02:54;6.38;;;2.20;;
15082;SDS011;7640;53.116;6.878;2022-07-09T11:05:25;3.08;;;1.90;;
15082;SDS011;7640;53.116;6.878;2022-07-09T11:08:00;5.05;;;2.35;;
15082;SDS011;7640;53.116;6.878;2022-07-09T11:10:30;4.95;;;2.10;;
15082;SDS011;7640;53.116;6.878;2022-07-09T11:13:00;5.47;;;2.05;;
15082;SDS011;7640;53.116;6.878;2022-07-09T11:15:29;5.78;;;2.22;;
15082;SDS011;7640;53.116;6.878;2022-07-09T11:18:00;6.55;;;2.55;;
15082;SDS011;7640;53.116;6.878;2022-07-09T11:20:31;5.13;;;1.83;;
15082;SDS011;7640;53.116;6.878;2022-07-09T11:23:06;4.82;;;2.20;;
15082;SDS011;7640;53.116;6.878;2022-07-09T11:25:36;4.78;;;2.13;;
15082;SDS011;7640;53.116;6.878;2022-07-09T11:28:04;5.97;;;2.15;;
15082;SDS011;7640;53.116;6.878;2022-07-09T11:30:39;4.97;;;2.30;;
15082;SDS011;7640;53.116;6.878;2022-07-09T11:33:07;2.83;;;1.90;;
15082;SDS011;7640;53.116;6.878;2022-07-09T11:35:43;9.02;;;2.15;;
15082;SDS011;7640;53.116;6.878;2022-07-09T11:38:13;5.28;;;2.13;;
15082;SDS011;7640;53.116;6.878;2022-07-09T11:40:43;4.95;;;1.75;;
15082;SDS011;7640;53.116;6.878;2022-07-09T11:43:13;5.13;;;2.17;;
15082;SDS011;7640;53.116;6.878;2022-07-09T11:45:51;6.88;;;2.35;;
15082;SDS011;7640;53.116;6.878;2022-07-09T11:48:20;5.07;;;1.90;;
15082;SDS011;7640;53.116;6.878;2022-07-09T11:50:48;4.13;;;1.90;;
15082;SDS011;7640;53.116;6.878;2022-07-09T11:53:20;4.72;;;1.92;;
15082;SDS011;7640;53.116;6.878;2022-07-09T11:55:58;3.83;;;1.42;;
15082;SDS011;7640;53.116;6.878;2022-07-09T11:58:27;5.20;;;1.70;;
15082;SDS011;7640;53.116;6.878;2022-07-09T12:00:56;3.35;;;1.50;;
15082;SDS011;7640;53.116;6.878;2022-07-09T12:03:26;2.88;;;1.30;;
15082;SDS011;7640;53.116;6.878;2022-07-09T12:05:57;2.35;;;1.20;;
15082;SDS011;7640;53.116;6.878;2022-07-09T12:08:27;3.90;;;1.35;;
15082;SDS011;7640;53.116;6.878;2022-07-09T12:10:58;3.78;;;1.17;;
15082;SDS011;7640;53.116;6.878;2022-07-09T12:13:27;4.03;;;1.67;;
15082;SDS011;7640;53.116;6.878;2022-07-09T12:15:55;3.58;;;1.10;;
15082;SDS011;7640;53.116;6.878;2022-07-09T12:18:24;6.72;;;1.20;;
15082;SDS011;7640;53.116;6.878;2022-07-09T12:20:53;3.08;;;1.20;;
15082;SDS011;7640;53.116;6.878;2022-07-09T12:23:22;5.07;;;1.50;;
15082;SDS011;7640;53.116;6.878;2022-07-09T12:25:52;4.50;;;1.40;;
15082;SDS011;7640;53.116;6.878;2022-07-09T12:28:20;4.00;;;1.30;;
15082;SDS011;7640;53.116;6.878;2022-07-09T12:30:48;4.18;;;1.23;;
15082;SDS011;7640;53.116;6.878;2022-07-09T12:33:17;5.28;;;1.10;;
15082;SDS011;7640;53.116;6.878;2022-07-09T12:35:45;5.22;;;1.15;;
15082;SDS011;7640;53.116;6.878;2022-07-09T12:38:14;2.42;;;1.00;;
15082;SDS011;7640;53.116;6.878;2022-07-09T12:40:43;4.43;;;1.35;;
15082;SDS011;7640;53.116;6.878;2022-07-09T12:43:12;4.70;;;1.20;;
15082;SDS011;7640;53.116;6.878;2022-07-09T12:45:40;2.72;;;0.90;;
15082;SDS011;7640;53.116;6.878;2022-07-09T12:48:08;2.67;;;1.00;;
15082;SDS011;7640;53.116;6.878;2022-07-09T12:50:37;4.80;;;1.10;;
15082;SDS011;7640;53.116;6.878;2022-07-09T12:53:05;2.80;;;1.48;;
15082;SDS011;7640;53.116;6.878;2022-07-09T12:55:33;5.95;;;1.50;;
15082;SDS011;7640;53.116;6.878;2022-07-09T12:58:22;3.20;;;1.10;;
15082;SDS011;7640;53.116;6.878;2022-07-09T13:00:51;2.85;;;1.20;;
15082;SDS011;7640;53.116;6.878;2022-07-09T13:03:19;6.13;;;1.73;;
15082;SDS011;7640;53.116;6.878;2022-07-09T13:05:47;5.13;;;1.55;;
15082;SDS011;7640;53.116;6.878;2022-07-09T13:08:15;4.40;;;1.20;;
15082;SDS011;7640;53.116;6.878;2022-07-09T13:10:47;3.53;;;1.27;;
15082;SDS011;7640;53.116;6.878;2022-07-09T13:13:15;3.22;;;1.20;;
15082;SDS011;7640;53.116;6.878;2022-07-09T13:15:45;4.93;;;1.13;;
15082;SDS011;7640;53.116;6.878;2022-07-09T13:18:14;5.03;;;1.20;;
15082;SDS011;7640;53.116;6.878;2022-07-09T13:20:44;4.72;;;1.20;;
15082;SDS011;7640;53.116;6.878;2022-07-09T13:23:12;3.08;;;1.05;;
15082;SDS011;7640;53.116;6.878;2022-07-09T13:25:40;3.80;;;1.10;;
15082;SDS011;7640;53.116;6.878;2022-07-09T13:28:11;3.22;;;1.10;;
15082;SDS011;7640;53.116;6.878;2022-07-09T13:30:40;4.25;;;1.45;;
15082;SDS011;7640;53.116;6.878;2022-07-09T13:33:09;3.88;;;1.20;;
15082;SDS011;7640;53.116;6.878;2022-07-09T13:35:38;3.67;;;1.02;;
15082;SDS011;7640;53.116;6.878;2022-07-09T13:38:06;3.22;;;0.93;;
15082;SDS011;7640;53.116;6.878;2022-07-09T13:40:35;2.30;;;1.00;;
15082;SDS011;7640;53.116;6.878;2022-07-09T13:43:03;3.45;;;1.00;;
15082;SDS011;7640;53.116;6.878;2022-07-09T13:45:31;3.97;;;1.10;;
15082;SDS011;7640;53.116;6.878;2022-07-09T13:47:59;2.90;;;1.08;;
15082;SDS011;7640;53.116;6.878;2022-07-09T13:50:29;3.60;;;1.08;;
15082;SDS011;7640;53.116;6.878;2022-07-09T13:52:58;3.28;;;1.10;;
15082;SDS011;7640;53.116;6.878;2022-07-09T13:55:27;4.40;;;1.10;;
15082;SDS011;7640;53.116;6.878;2022-07-09T13:57:55;4.43;;;1.00;;
15082;SDS011;7640;53.116;6.878;2022-07-09T14:00:24;3.70;;;1.10;;
15082;SDS011;7640;53.116;6.878;2022-07-09T14:02:52;3.67;;;1.08;;
15082;SDS011;7640;53.116;6.878;2022-07-09T14:05:20;3.22;;;1.20;;
15082;SDS011;7640;53.116;6.878;2022-07-09T14:07:50;4.32;;;1.35;;
15082;SDS011;7640;53.116;6.878;2022-07-09T14:10:18;2.20;;;0.90;;
15082;SDS011;7640;53.116;6.878;2022-07-09T14:12:47;3.20;;;1.38;;
15082;SDS011;7640;53.116;6.878;2022-07-09T14:15:15;2.65;;;1.10;;
15082;SDS011;7640;53.116;6.878;2022-07-09T14:17:46;2.30;;;1.30;;
15082;SDS011;7640;53.116;6.878;2022-07-09T14:20:14;4.45;;;1.15;;
15082;SDS011;7640;53.116;6.878;2022-07-09T14:22:43;3.25;;;1.17;;
15082;SDS011;7640;53.116;6.878;2022-07-09T14:25:13;2.03;;;1.00;;
15082;SDS011;7640;53.116;6.878;2022-07-09T14:27:42;3.72;;;1.13;;
15082;SDS011;7640;53.116;6.878;2022-07-09T14:30:10;2.63;;;1.20;;
15082;SDS011;7640;53.116;6.878;2022-07-09T14:32:39;3.83;;;1.48;;
15082;SDS011;7640;53.116;6.878;2022-07-09T14:35:07;5.30;;;1.67;;
15082;SDS011;7640;53.116;6.878;2022-07-09T14:37:35;3.75;;;1.55;;
15082;SDS011;7640;53.116;6.878;2022-07-09T14:40:04;3.70;;;1.30;;
15082;SDS011;7640;53.116;6.878;2022-07-09T14:42:35;5.50;;;1.80;;
15082;SDS011;7640;53.116;6.878;2022-07-09T14:45:03;3.30;;;1.95;;
15082;SDS011;7640;53.116;6.878;2022-07-09T14:47:33;4.97;;;1.73;;
15082;SDS011;7640;53.116;6.878;2022-07-09T14:50:01;5.00;;;1.90;;
15082;SDS011;7640;53.116;6.878;2022-07-09T14:52:30;4.07;;;1.40;;
15082;SDS011;7640;53.116;6.878;2022-07-09T14:54:58;5.77;;;1.83;;
15082;SDS011;7640;53.116;6.878;2022-07-09T14:57:26;4.93;;;1.47;;
15082;SDS011;7640;53.116;6.878;2022-07-09T14:59:56;6.53;;;1.70;;
15082;SDS011;7640;53.116;6.878;2022-07-09T15:02:24;4.10;;;1.40;;
15082;SDS011;7640;53.116;6.878;2022-07-09T15:04:52;4.33;;;1.50;;